KLAR/LAR METAR and TAF weather

Enter ICAO airport designator
Station Type Date Time Source
KLAR METAR 2020/12/05 04:53 UTC NOAA

KLAR 050453Z AUTO 24004KT 10SM CLR M11/M15 A3042 RMK AO2 SLP349 T11061150


Station Type Date Time Source
KLAR Decoded METAR 2020/12/05 04:53 UTC NOAA

LARAMIE REGIONAL AIRPORT, WY, United States (KLAR) 41-19N 105-40W 2216M
Dec 04, 2020 - 11:53 PM EST / 2020.12.05 0453 UTC
Wind: from the WSW (240 degrees) at 5 MPH (4 KT):0
Visibility: 10 mile(s):0
Sky conditions: clear
Temperature: 12.9 F (-10.6 C)
Windchill: 5 F (-15 C):1
Dew Point: 5.0 F (-15.0 C)
Relative Humidity: 70%
Pressure (altimeter): 30.42 in. Hg (1030 hPa)
ob: KLAR 050453Z AUTO 24004KT 10SM CLR M11/M15 A3042 RMK AO2 SLP349 T11061150
cycle: 5

Station Type Date Time Source
KLAR TAF 2020/12/05 06:22 UTC NOAA

TAF KLAR 050520Z 0506/0606 10005KT P6SM SKC
FM051200 15005KT P6SM SKC
FM051700 36005KT P6SM SKC

Example: see airport list